createdAt,value
2023-01-22T00:01:27.877Z,8.75
2023-01-22T00:06:29.372Z,9.57
2023-01-22T00:11:30.984Z,7.95
2023-01-22T00:16:32.396Z,8.50
2023-01-22T00:21:34.341Z,8.90
2023-01-22T00:26:36.641Z,8.70
2023-01-22T00:31:38.962Z,8.73
2023-01-22T00:36:40.793Z,8.55
2023-01-22T00:41:42.780Z,9.07
2023-01-22T00:46:44.292Z,8.88
2023-01-22T00:51:45.767Z,8.90
2023-01-22T00:56:47.156Z,9.25
2023-01-22T01:01:48.561Z,9.15
2023-01-22T01:06:50.033Z,9.30
2023-01-22T01:11:51.446Z,7.80
2023-01-22T01:16:52.907Z,8.73
2023-01-22T01:21:54.353Z,9.00
2023-01-22T01:26:55.764Z,9.30
2023-01-22T01:31:58.044Z,8.77
2023-01-22T01:36:59.544Z,8.10
2023-01-22T01:42:00.935Z,8.35
2023-01-22T01:47:06.041Z,8.10
2023-01-22T01:52:09.428Z,7.32
2023-01-22T01:57:16.210Z,7.82
2023-01-22T02:02:20.497Z,7.13
2023-01-22T02:07:22.109Z,7.05
2023-01-22T02:12:23.535Z,6.57
2023-01-22T02:17:24.918Z,7.28
2023-01-22T02:22:30.938Z,6.93
2023-01-22T02:27:32.397Z,6.90
2023-01-22T02:32:33.833Z,6.88
2023-01-22T02:37:35.270Z,7.53
2023-01-22T02:42:36.704Z,7.72
2023-01-22T02:47:38.187Z,7.35
2023-01-22T02:52:39.798Z,7.45
2023-01-22T02:57:41.214Z,7.75
2023-01-22T03:02:42.612Z,7.40
2023-01-22T03:07:45.131Z,7.65
2023-01-22T03:13:05.700Z,7.40
2023-01-22T03:18:25.543Z,7.80
2023-01-22T03:23:28.199Z,7.38
2023-01-22T03:28:29.721Z,7.53
2023-01-22T03:33:31.312Z,8.23
2023-01-22T03:38:32.944Z,8.30
2023-01-22T03:43:34.805Z,7.63
2023-01-22T03:48:36.624Z,7.97
2023-01-22T03:53:38.025Z,7.88
2023-01-22T03:58:39.613Z,8.40
2023-01-22T04:03:41.111Z,7.20
2023-01-22T04:08:43.454Z,7.38
2023-01-22T04:13:45.644Z,7.95
2023-01-22T04:18:47.092Z,8.65
2023-01-22T04:23:48.502Z,7.75
2023-01-22T04:28:49.930Z,7.32
2023-01-22T04:33:51.337Z,7.38
2023-01-22T04:38:52.754Z,7.07
2023-01-22T04:43:54.219Z,7.43
2023-01-22T04:48:55.664Z,6.65
2023-01-22T04:53:57.068Z,6.25
2023-01-22T04:58:58.492Z,6.28
2023-01-22T05:04:01.064Z,6.90
2023-01-22T05:09:02.470Z,5.97
2023-01-22T05:14:03.875Z,6.03
2023-01-22T05:19:05.328Z,6.20
2023-01-22T05:24:08.242Z,6.25
2023-01-22T05:29:09.649Z,6.32
2023-01-22T05:34:11.075Z,5.05
2023-01-22T05:39:12.885Z,6.28
2023-01-22T05:44:14.348Z,5.65
2023-01-22T05:49:15.833Z,5.80
2023-01-22T05:54:35.724Z,5.68
2023-01-22T05:59:37.113Z,5.43
2023-01-22T06:04:38.545Z,5.65
2023-01-22T06:09:39.924Z,4.82
2023-01-22T06:14:41.507Z,5.35
2023-01-22T06:19:42.938Z,5.32
2023-01-22T06:24:44.355Z,4.63
2023-01-22T06:29:45.751Z,4.93
2023-01-22T06:34:47.497Z,5.57
2023-01-22T06:39:48.913Z,5.65
2023-01-22T06:44:51.639Z,5.88
2023-01-22T06:49:53.138Z,5.05
2023-01-22T06:54:54.576Z,5.50
2023-01-22T06:59:56.043Z,4.85
2023-01-22T07:04:57.666Z,4.97
2023-01-22T07:09:59.077Z,5.22
2023-01-22T07:15:00.577Z,5.95
2023-01-22T07:20:02.647Z,5.68
2023-01-22T07:25:04.261Z,5.22
2023-01-22T07:30:06.509Z,5.30
2023-01-22T07:35:08.225Z,5.40
2023-01-22T07:40:09.970Z,5.70
2023-01-22T07:45:11.451Z,5.57
2023-01-22T07:50:12.873Z,6.88
2023-01-22T07:55:14.334Z,5.50
2023-01-22T08:00:16.466Z,4.45
2023-01-22T08:05:18.283Z,5.00
2023-01-22T08:10:20.371Z,5.60
2023-01-22T08:15:22.072Z,5.07
2023-01-22T08:20:23.643Z,4.90
2023-01-22T08:25:25.460Z,5.40
2023-01-22T08:30:26.897Z,5.10
2023-01-22T08:35:29.239Z,5.15
2023-01-22T08:40:30.644Z,5.35
2023-01-22T08:45:32.108Z,4.70
2023-01-22T08:50:33.588Z,4.70
2023-01-22T08:55:35.224Z,4.65
2023-01-22T09:00:36.652Z,4.53
2023-01-22T09:05:39.252Z,4.60
2023-01-22T09:10:40.714Z,4.82
2023-01-22T09:15:42.194Z,5.00
2023-01-22T09:20:44.841Z,8.02
2023-01-22T09:25:46.294Z,6.90
2023-01-22T09:30:47.703Z,5.80
2023-01-22T09:35:49.194Z,5.43
2023-01-22T09:40:58.676Z,5.38
2023-01-22T09:46:05.632Z,5.05
2023-01-22T09:51:07.341Z,4.78
2023-01-22T09:56:14.455Z,4.72
2023-01-22T10:01:16.533Z,5.53
2023-01-22T10:06:21.610Z,6.45
2023-01-22T10:11:23.330Z,5.95
2023-01-22T10:16:25.059Z,4.80
2023-01-22T10:21:28.050Z,4.80
2023-01-22T10:26:49.184Z,4.57
2023-01-22T10:31:52.925Z,5.07
2023-01-22T10:36:54.858Z,5.80
2023-01-22T10:42:00.993Z,5.43
2023-01-22T10:47:09.850Z,4.90
2023-01-22T10:52:26.976Z,5.30
2023-01-22T10:57:31.589Z,4.68
2023-01-22T11:02:34.317Z,5.85
2023-01-22T11:07:35.979Z,5.22
2023-01-22T11:12:45.495Z,5.45
2023-01-22T11:17:50.044Z,5.25
2023-01-22T11:23:03.690Z,4.93
2023-01-22T11:28:12.467Z,5.53
2023-01-22T11:33:34.332Z,5.90
2023-01-22T11:38:51.270Z,5.72
2023-01-22T11:43:59.148Z,7.28
2023-01-22T11:49:06.826Z,8.15
2023-01-22T11:54:23.763Z,6.90
2023-01-22T11:59:40.331Z,6.60
2023-01-22T12:04:41.749Z,7.38
2023-01-22T12:09:43.143Z,7.03
2023-01-22T12:14:47.399Z,7.57
2023-01-22T12:20:08.319Z,7.25
2023-01-22T12:25:12.554Z,6.95
2023-01-22T12:30:20.374Z,7.57
2023-01-22T12:35:22.692Z,6.45
2023-01-22T12:40:42.039Z,6.53
2023-01-22T12:45:43.501Z,8.03
2023-01-22T12:50:51.896Z,6.63
2023-01-22T12:56:09.910Z,7.10
2023-01-22T13:01:14.121Z,6.93
2023-01-22T13:06:20.032Z,8.35
2023-01-22T13:11:32.145Z,7.40
2023-01-22T13:16:34.959Z,6.88
2023-01-22T13:21:36.525Z,8.07
2023-01-22T13:26:38.313Z,8.93
2023-01-22T13:31:39.781Z,7.97
2023-01-22T13:36:45.210Z,8.18
2023-01-22T13:41:48.811Z,6.93
2023-01-22T13:46:50.879Z,6.30
2023-01-22T13:51:52.791Z,6.90
2023-01-22T13:56:54.318Z,6.60
2023-01-22T14:01:56.135Z,6.93
2023-01-22T14:06:58.056Z,7.28
2023-01-22T14:12:00.061Z,7.47
2023-01-22T14:17:01.537Z,7.53
2023-01-22T14:22:03.092Z,6.97
2023-01-22T14:27:04.521Z,7.10
2023-01-22T14:32:05.976Z,7.63
2023-01-22T14:37:07.518Z,7.50
2023-01-22T14:42:09.003Z,7.78
2023-01-22T14:47:10.473Z,8.18
2023-01-22T14:52:11.914Z,8.65
2023-01-22T14:57:13.416Z,7.25
2023-01-22T15:02:14.911Z,8.45
2023-01-22T15:07:16.477Z,7.68
2023-01-22T15:12:18.674Z,7.72
2023-01-22T15:17:21.686Z,6.40
2023-01-22T15:22:23.306Z,7.32
2023-01-22T15:27:24.705Z,7.32
2023-01-22T15:32:26.109Z,7.25
2023-01-22T15:37:27.549Z,7.32
2023-01-22T15:42:29.057Z,10.18
2023-01-22T15:47:30.739Z,12.85
2023-01-22T15:52:50.665Z,8.40
2023-01-22T15:57:52.096Z,7.18
2023-01-22T16:02:53.569Z,7.97
2023-01-22T16:07:55.000Z,7.05
2023-01-22T16:12:56.435Z,6.78
2023-01-22T16:17:58.213Z,6.68
2023-01-22T16:22:59.676Z,6.20
2023-01-22T16:28:01.192Z,6.32
2023-01-22T16:33:15.570Z,6.05
2023-01-22T16:38:17.007Z,6.88
2023-01-22T16:43:18.825Z,6.82
2023-01-22T16:48:21.404Z,7.22
2023-01-22T16:53:22.847Z,7.53
2023-01-22T16:58:24.287Z,6.22
2023-01-22T17:03:25.892Z,6.50
2023-01-22T17:08:27.382Z,5.57
2023-01-22T17:13:29.801Z,7.72
2023-01-22T17:18:31.263Z,6.75
2023-01-22T17:23:32.858Z,8.60
2023-01-22T17:28:37.440Z,7.20
2023-01-22T17:33:39.226Z,7.05
2023-01-22T17:38:40.752Z,6.97
2023-01-22T17:43:43.743Z,7.43
2023-01-22T17:48:45.858Z,6.65
2023-01-22T17:53:48.086Z,8.13
2023-01-22T17:58:50.607Z,6.95
2023-01-22T18:03:52.058Z,7.22
2023-01-22T18:08:53.893Z,7.85
2023-01-22T18:14:22.114Z,6.57
2023-01-22T18:19:24.689Z,7.20
2023-01-22T18:24:26.861Z,6.93
2023-01-22T18:29:28.804Z,8.23
2023-01-22T18:34:30.318Z,8.30
2023-01-22T18:39:31.736Z,8.98
2023-01-22T18:44:33.551Z,7.80
2023-01-22T18:49:34.976Z,7.40
2023-01-22T18:54:36.399Z,7.65
2023-01-22T18:59:37.882Z,7.63
2023-01-22T19:04:39.280Z,7.45
2023-01-22T19:09:41.223Z,8.05
2023-01-22T19:14:42.658Z,6.80
2023-01-22T19:19:44.063Z,6.97
2023-01-22T19:24:45.771Z,7.70
2023-01-22T19:29:48.082Z,7.93
2023-01-22T19:34:49.537Z,6.97
2023-01-22T19:39:51.075Z,7.75
2023-01-22T19:44:52.624Z,7.97
2023-01-22T19:49:54.369Z,7.53
2023-01-22T19:54:55.936Z,7.60
2023-01-22T19:59:59.150Z,7.22
2023-01-22T20:05:00.612Z,7.15
2023-01-22T20:10:02.120Z,7.20
2023-01-22T20:15:04.172Z,6.03
2023-01-22T20:20:06.243Z,6.97
2023-01-22T20:25:09.132Z,8.07
2023-01-22T20:30:10.871Z,9.65
2023-01-22T20:35:15.545Z,8.07
2023-01-22T20:40:17.229Z,6.80
2023-01-22T20:45:18.873Z,7.35
2023-01-22T20:50:20.443Z,6.25
2023-01-22T20:55:21.996Z,6.50
2023-01-22T21:00:24.092Z,6.20
2023-01-22T21:05:25.520Z,7.50
2023-01-22T21:10:26.915Z,6.72
2023-01-22T21:15:28.528Z,6.15
2023-01-22T21:20:30.245Z,6.28
2023-01-22T21:25:34.322Z,6.28
2023-01-22T21:30:35.911Z,6.38
2023-01-22T21:35:37.336Z,6.55
2023-01-22T21:40:38.908Z,5.40
2023-01-22T21:46:00.780Z,6.00
2023-01-22T21:51:02.738Z,6.10
2023-01-22T21:56:04.263Z,6.65
2023-01-22T22:01:06.585Z,6.50
2023-01-22T22:06:08.832Z,6.00
2023-01-22T22:11:10.971Z,6.97
2023-01-22T22:16:13.067Z,5.75
2023-01-22T22:21:14.663Z,7.15
2023-01-22T22:26:16.105Z,6.38
2023-01-22T22:31:18.077Z,5.55
2023-01-22T22:36:20.977Z,5.43
2023-01-22T22:41:24.592Z,5.95
2023-01-22T22:46:26.104Z,6.40
2023-01-22T22:51:29.809Z,6.03
2023-01-22T22:56:31.249Z,6.43
2023-01-22T23:01:33.274Z,6.53
2023-01-22T23:06:35.781Z,5.80
2023-01-22T23:11:58.479Z,5.88
2023-01-22T23:17:00.015Z,6.32
2023-01-22T23:22:01.473Z,6.50
2023-01-22T23:27:03.127Z,5.78
2023-01-22T23:32:04.690Z,5.80
2023-01-22T23:42:21.357Z,6.25
2023-01-22T23:47:24.517Z,6.15
2023-01-22T23:52:26.130Z,5.93
2023-01-22T23:57:27.593Z,6.10
